Terminal Aerodrome Forecast
Issued by NWS

Home | Current Version | Previous Version | Graphics & Text | Print | Product List | Glossary On
Versions: 1 2 3 4 5 6 7 8 9 10 11 12 13
376
FTUS43 KGRB 032320
TAFCWA
TAF
KCWA 032320Z 0400/0424 30011G20KT 6SM -RA BKN050
      TEMPO 0400/0404 3SM -TSRA BKN030CB
     FM040500 33006KT P6SM VCSH SCT040 BKN100
     FM040700 34009KT P6SM SCT040
     FM041300 35014G22KT P6SM BKN035=

USA.gov is the U.S. government's official web portal to all federal, state and local government web resources and services.